首页
METAR-TAF:

METAR-TAF

机场 :

阿尔皮纳, 密歇根州, 美国

纬度: 45-04-18N, 经度: 083-33-52W, 海拔: 210米

当前天气观测

该预报发布于29分钟前的00:54 UTC
静风
温度 8°C
湿度 57%
气压 1017 hPa
能見度: 16.1公里
阴天层高于8000英尺

METAR: KAPN 070054Z 00000KT 10SM OVC080 08/00 A3002 RMK AO2 SLP171 T00780000

时间: 21:23 (01:23 UTC)

预报

该预报发布于1小时和56分钟前的23:27 UTC
预报有效从07日的 00点(UTC)到 07日的 24点(UTC)
风速7节,风向东北
能見度: 10公里
多云层高于7000英尺
阴天层高于8000英尺
从 07日的 1200点(UTC)
风速5节,风向东转东南
能見度: 10公里
多云层高于7000英尺
从 07日的 1800点(UTC)
风速9节,风向东转东南
能見度: 10公里
多云层高于4500英尺
从 07日的 2100点(UTC)
风速8节,风向
能見度: 10公里
阴天层高于2000英尺
附近有阵雨

TAF: KAPN 062327Z 0700/0724 04007KT P6SM BKN070 OVC080 FM071200 11005KT P6SM BKN070 FM071800 12009KT P6SM BKN045 FM072100 10008KT P6SM VCSH OVC020

超过4000个机场的气象观测和天气预报(METAR&TAF报告)。

可查询的气象台以黄色和红色小点在地图上表示。

将鼠标移到小点上方,可查看气象台名称。

然后点击查看天气观测和预报。

如需切换地图:点击带黑十字的绿色按钮放大地图;点击带横线的绿色按钮缩小地图;或者点击绿色箭头查看邻近地区的地图。


METAR-TAF: